sensor_id;sensor_type;location;lat;lon;timestamp;pressure;altitude;pressure_sealevel;temperature;humidity
15272;BME280;7737;51.578;7.268;2023-07-29T00:01:36;100275.56;;;20.01;100.00
15272;BME280;7737;51.578;7.268;2023-07-29T00:04:05;100267.78;;;19.98;100.00
15272;BME280;7737;51.578;7.268;2023-07-29T00:06:31;100273.75;;;19.92;100.00
15272;BME280;7737;51.578;7.268;2023-07-29T00:08:58;100281.56;;;19.95;100.00
15272;BME280;7737;51.578;7.268;2023-07-29T00:11:25;100273.34;;;19.87;100.00
15272;BME280;7737;51.578;7.268;2023-07-29T00:13:53;100273.63;;;19.84;100.00
15272;BME280;7737;51.578;7.268;2023-07-29T00:16:19;100275.63;;;19.73;100.00
15272;BME280;7737;51.578;7.268;2023-07-29T00:18:47;100279.19;;;19.73;100.00
15272;BME280;7737;51.578;7.268;2023-07-29T00:21:13;100267.72;;;19.71;100.00
15272;BME280;7737;51.578;7.268;2023-07-29T00:23:40;100276.41;;;19.56;100.00
15272;BME280;7737;51.578;7.268;2023-07-29T00:26:07;100276.94;;;19.59;100.00
15272;BME280;7737;51.578;7.268;2023-07-29T00:28:33;100269.28;;;19.64;100.00
15272;BME280;7737;51.578;7.268;2023-07-29T00:31:01;100268.84;;;19.59;100.00
15272;BME280;7737;51.578;7.268;2023-07-29T00:33:28;100273.97;;;19.53;100.00
15272;BME280;7737;51.578;7.268;2023-07-29T00:35:54;100275.25;;;19.58;100.00
15272;BME280;7737;51.578;7.268;2023-07-29T00:38:21;100282.22;;;19.51;100.00
15272;BME280;7737;51.578;7.268;2023-07-29T00:40:47;100271.31;;;19.43;100.00
15272;BME280;7737;51.578;7.268;2023-07-29T00:43:15;100264.91;;;19.44;100.00
15272;BME280;7737;51.578;7.268;2023-07-29T00:45:42;100268.00;;;19.49;100.00
15272;BME280;7737;51.578;7.268;2023-07-29T00:48:11;100267.72;;;19.52;100.00
15272;BME280;7737;51.578;7.268;2023-07-29T00:50:38;100262.06;;;19.46;100.00
15272;BME280;7737;51.578;7.268;2023-07-29T00:53:05;100261.91;;;19.18;100.00
15272;BME280;7737;51.578;7.268;2023-07-29T00:55:32;100266.00;;;19.13;100.00
15272;BME280;7737;51.578;7.268;2023-07-29T00:57:59;100263.75;;;19.08;100.00
15272;BME280;7737;51.578;7.268;2023-07-29T01:00:26;100263.00;;;19.06;100.00
15272;BME280;7737;51.578;7.268;2023-07-29T01:02:53;100264.59;;;19.09;100.00
15272;BME280;7737;51.578;7.268;2023-07-29T01:05:21;100263.19;;;19.05;100.00
15272;BME280;7737;51.578;7.268;2023-07-29T01:07:53;100260.06;;;19.00;100.00
15272;BME280;7737;51.578;7.268;2023-07-29T01:10:31;100261.47;;;18.94;100.00
15272;BME280;7737;51.578;7.268;2023-07-29T01:13:06;100257.06;;;18.83;100.00
15272;BME280;7737;51.578;7.268;2023-07-29T01:15:42;100246.72;;;18.89;100.00
15272;BME280;7737;51.578;7.268;2023-07-29T01:18:15;100245.56;;;18.91;100.00
15272;BME280;7737;51.578;7.268;2023-07-29T01:20:47;100247.25;;;18.82;100.00
15272;BME280;7737;51.578;7.268;2023-07-29T01:23:15;100248.69;;;18.87;100.00
15272;BME280;7737;51.578;7.268;2023-07-29T01:25:43;100252.81;;;18.91;100.00
15272;BME280;7737;51.578;7.268;2023-07-29T01:28:10;100247.41;;;18.91;100.00
15272;BME280;7737;51.578;7.268;2023-07-29T01:30:39;100253.38;;;18.84;100.00
15272;BME280;7737;51.578;7.268;2023-07-29T01:33:09;100251.09;;;18.70;100.00
15272;BME280;7737;51.578;7.268;2023-07-29T01:35:42;100257.44;;;18.69;100.00
15272;BME280;7737;51.578;7.268;2023-07-29T01:38:13;100260.41;;;18.57;100.00
15272;BME280;7737;51.578;7.268;2023-07-29T01:40:44;100252.63;;;18.63;100.00
15272;BME280;7737;51.578;7.268;2023-07-29T01:43:10;100248.94;;;18.64;100.00
15272;BME280;7737;51.578;7.268;2023-07-29T01:45:38;100254.59;;;18.61;100.00
15272;BME280;7737;51.578;7.268;2023-07-29T01:48:05;100259.16;;;18.70;100.00
15272;BME280;7737;51.578;7.268;2023-07-29T01:50:32;100254.38;;;18.74;100.00
15272;BME280;7737;51.578;7.268;2023-07-29T01:52:58;100249.69;;;18.76;100.00
15272;BME280;7737;51.578;7.268;2023-07-29T01:55:25;100246.56;;;18.80;100.00
15272;BME280;7737;51.578;7.268;2023-07-29T01:57:52;100243.31;;;18.77;100.00
15272;BME280;7737;51.578;7.268;2023-07-29T02:00:19;100237.63;;;18.70;100.00
15272;BME280;7737;51.578;7.268;2023-07-29T02:02:46;100241.31;;;18.79;100.00
15272;BME280;7737;51.578;7.268;2023-07-29T02:05:12;100243.16;;;18.78;100.00
15272;BME280;7737;51.578;7.268;2023-07-29T02:07:39;100250.53;;;18.86;100.00
15272;BME280;7737;51.578;7.268;2023-07-29T02:10:06;100238.91;;;18.85;100.00
15272;BME280;7737;51.578;7.268;2023-07-29T02:12:34;100231.09;;;18.82;100.00
15272;BME280;7737;51.578;7.268;2023-07-29T02:15:02;100237.63;;;18.80;100.00
15272;BME280;7737;51.578;7.268;2023-07-29T02:17:28;100244.56;;;18.82;100.00
15272;BME280;7737;51.578;7.268;2023-07-29T02:19:55;100241.47;;;18.87;100.00
15272;BME280;7737;51.578;7.268;2023-07-29T02:22:21;100243.03;;;18.90;100.00
15272;BME280;7737;51.578;7.268;2023-07-29T02:24:48;100241.91;;;19.02;100.00
15272;BME280;7737;51.578;7.268;2023-07-29T02:27:15;100234.53;;;19.13;100.00
15272;BME280;7737;51.578;7.268;2023-07-29T02:29:41;100234.25;;;19.16;100.00
15272;BME280;7737;51.578;7.268;2023-07-29T02:32:09;100222.63;;;19.16;100.00
15272;BME280;7737;51.578;7.268;2023-07-29T02:34:35;100212.25;;;19.21;100.00
15272;BME280;7737;51.578;7.268;2023-07-29T02:37:02;100214.66;;;19.14;100.00
15272;BME280;7737;51.578;7.268;2023-07-29T02:39:29;100206.00;;;19.20;100.00
15272;BME280;7737;51.578;7.268;2023-07-29T02:41:56;100214.50;;;19.25;100.00
15272;BME280;7737;51.578;7.268;2023-07-29T02:44:23;100215.78;;;19.31;100.00
15272;BME280;7737;51.578;7.268;2023-07-29T02:46:50;100214.97;;;19.40;100.00
15272;BME280;7737;51.578;7.268;2023-07-29T02:49:18;100210.97;;;19.34;100.00
15272;BME280;7737;51.578;7.268;2023-07-29T02:51:45;100215.22;;;19.37;100.00
15272;BME280;7737;51.578;7.268;2023-07-29T02:54:11;100207.88;;;19.39;100.00
15272;BME280;7737;51.578;7.268;2023-07-29T02:56:38;100215.66;;;19.42;100.00
15272;BME280;7737;51.578;7.268;2023-07-29T02:59:04;100218.78;;;19.47;100.00
15272;BME280;7737;51.578;7.268;2023-07-29T03:01:31;100216.66;;;19.51;100.00
15272;BME280;7737;51.578;7.268;2023-07-29T03:03:58;100220.63;;;19.47;100.00
15272;BME280;7737;51.578;7.268;2023-07-29T03:06:26;100225.16;;;19.46;100.00
15272;BME280;7737;51.578;7.268;2023-07-29T03:08:52;100222.78;;;19.43;100.00
15272;BME280;7737;51.578;7.268;2023-07-29T03:11:19;100222.19;;;19.49;100.00
15272;BME280;7737;51.578;7.268;2023-07-29T03:13:45;100229.97;;;19.52;100.00
15272;BME280;7737;51.578;7.268;2023-07-29T03:16:14;100229.97;;;19.52;100.00
15272;BME280;7737;51.578;7.268;2023-07-29T03:18:41;100235.38;;;19.52;100.00
15272;BME280;7737;51.578;7.268;2023-07-29T03:21:09;100245.44;;;19.60;100.00
15272;BME280;7737;51.578;7.268;2023-07-29T03:23:38;100251.25;;;19.55;100.00
15272;BME280;7737;51.578;7.268;2023-07-29T03:26:04;100248.00;;;19.61;100.00
15272;BME280;7737;51.578;7.268;2023-07-29T03:28:36;100251.53;;;19.52;100.00
15272;BME280;7737;51.578;7.268;2023-07-29T03:31:03;100249.88;;;19.51;100.00
15272;BME280;7737;51.578;7.268;2023-07-29T03:33:29;100247.59;;;19.47;100.00
15272;BME280;7737;51.578;7.268;2023-07-29T03:35:56;100246.16;;;19.52;100.00
15272;BME280;7737;51.578;7.268;2023-07-29T03:38:23;100231.41;;;19.56;100.00
15272;BME280;7737;51.578;7.268;2023-07-29T03:40:51;100232.22;;;19.57;100.00
15272;BME280;7737;51.578;7.268;2023-07-29T03:43:18;100230.25;;;19.59;100.00
15272;BME280;7737;51.578;7.268;2023-07-29T03:45:45;100230.84;;;19.53;100.00
15272;BME280;7737;51.578;7.268;2023-07-29T03:48:11;100230.69;;;19.54;100.00
15272;BME280;7737;51.578;7.268;2023-07-29T03:50:38;100217.47;;;19.61;100.00
15272;BME280;7737;51.578;7.268;2023-07-29T03:53:04;100214.22;;;19.57;100.00
15272;BME280;7737;51.578;7.268;2023-07-29T03:55:31;100220.91;;;19.53;100.00
15272;BME280;7737;51.578;7.268;2023-07-29T03:58:00;100227.97;;;19.54;100.00
15272;BME280;7737;51.578;7.268;2023-07-29T04:00:27;100227.41;;;19.60;100.00
15272;BME280;7737;51.578;7.268;2023-07-29T04:02:54;100230.53;;;19.56;100.00
15272;BME280;7737;51.578;7.268;2023-07-29T04:05:20;100225.16;;;19.56;100.00
15272;BME280;7737;51.578;7.268;2023-07-29T04:07:47;100220.75;;;19.55;100.00
15272;BME280;7737;51.578;7.268;2023-07-29T04:10:14;100227.00;;;19.55;100.00
15272;BME280;7737;51.578;7.268;2023-07-29T04:12:40;100216.91;;;19.57;100.00
15272;BME280;7737;51.578;7.268;2023-07-29T04:15:09;100214.50;;;19.54;100.00
15272;BME280;7737;51.578;7.268;2023-07-29T04:17:35;100204.44;;;19.56;100.00
15272;BME280;7737;51.578;7.268;2023-07-29T04:20:02;100212.38;;;19.58;100.00
15272;BME280;7737;51.578;7.268;2023-07-29T04:22:29;100211.38;;;19.59;100.00
15272;BME280;7737;51.578;7.268;2023-07-29T04:24:55;100209.09;;;19.54;100.00
15272;BME280;7737;51.578;7.268;2023-07-29T04:27:22;100213.22;;;19.58;100.00
15272;BME280;7737;51.578;7.268;2023-07-29T04:29:48;100227.97;;;19.64;100.00
15272;BME280;7737;51.578;7.268;2023-07-29T04:32:16;100224.59;;;19.62;100.00
15272;BME280;7737;51.578;7.268;2023-07-29T04:34:42;100224.31;;;19.55;100.00
15272;BME280;7737;51.578;7.268;2023-07-29T04:37:09;100210.09;;;19.63;100.00
15272;BME280;7737;51.578;7.268;2023-07-29T04:39:35;100200.44;;;19.60;100.00
15272;BME280;7737;51.578;7.268;2023-07-29T04:42:02;100203.25;;;19.68;100.00
15272;BME280;7737;51.578;7.268;2023-07-29T04:44:29;100208.38;;;19.71;100.00
15272;BME280;7737;51.578;7.268;2023-07-29T04:46:55;100205.97;;;19.68;100.00
15272;BME280;7737;51.578;7.268;2023-07-29T04:49:23;100218.59;;;19.68;100.00
15272;BME280;7737;51.578;7.268;2023-07-29T04:51:50;100221.72;;;19.63;100.00
15272;BME280;7737;51.578;7.268;2023-07-29T04:54:16;100236.19;;;19.62;100.00
15272;BME280;7737;51.578;7.268;2023-07-29T04:56:45;100241.88;;;19.59;100.00
15272;BME280;7737;51.578;7.268;2023-07-29T04:59:12;100239.06;;;19.61;100.00
15272;BME280;7737;51.578;7.268;2023-07-29T05:01:39;100240.19;;;19.58;100.00
15272;BME280;7737;51.578;7.268;2023-07-29T05:04:07;100242.47;;;19.53;100.00
15272;BME280;7737;51.578;7.268;2023-07-29T05:06:35;100255.25;;;19.51;100.00
15272;BME280;7737;51.578;7.268;2023-07-29T05:09:12;100256.50;;;19.57;100.00
15272;BME280;7737;51.578;7.268;2023-07-29T05:11:39;100263.44;;;19.59;100.00
15272;BME280;7737;51.578;7.268;2023-07-29T05:14:06;100268.16;;;19.57;100.00
15272;BME280;7737;51.578;7.268;2023-07-29T05:16:34;100272.84;;;19.55;100.00
15272;BME280;7737;51.578;7.268;2023-07-29T05:19:00;100278.19;;;19.65;100.00
15272;BME280;7737;51.578;7.268;2023-07-29T05:21:27;100268.88;;;19.50;100.00
15272;BME280;7737;51.578;7.268;2023-07-29T05:23:55;100263.44;;;19.59;100.00
15272;BME280;7737;51.578;7.268;2023-07-29T05:26:21;100250.81;;;19.60;100.00
15272;BME280;7737;51.578;7.268;2023-07-29T05:28:48;100225.69;;;19.59;100.00
15272;BME280;7737;51.578;7.268;2023-07-29T05:31:15;100226.31;;;19.53;100.00
15272;BME280;7737;51.578;7.268;2023-07-29T05:33:41;100216.03;;;19.66;100.00
15272;BME280;7737;51.578;7.268;2023-07-29T05:36:08;100212.53;;;19.56;100.00
15272;BME280;7737;51.578;7.268;2023-07-29T05:38:34;100217.59;;;19.69;100.00
15272;BME280;7737;51.578;7.268;2023-07-29T05:41:02;100227.25;;;19.71;100.00
15272;BME280;7737;51.578;7.268;2023-07-29T05:43:28;100230.63;;;19.73;100.00
15272;BME280;7737;51.578;7.268;2023-07-29T05:45:55;100223.13;;;19.67;100.00
15272;BME280;7737;51.578;7.268;2023-07-29T05:48:21;100236.88;;;19.74;100.00
15272;BME280;7737;51.578;7.268;2023-07-29T05:50:48;100235.19;;;19.73;100.00
15272;BME280;7737;51.578;7.268;2023-07-29T05:53:15;100240.16;;;19.68;100.00
15272;BME280;7737;51.578;7.268;2023-07-29T05:55:42;100242.44;;;19.63;100.00
15272;BME280;7737;51.578;7.268;2023-07-29T05:58:10;100243.00;;;19.57;100.00
15272;BME280;7737;51.578;7.268;2023-07-29T06:00:36;100253.69;;;19.58;100.00
15272;BME280;7737;51.578;7.268;2023-07-29T06:03:03;100254.66;;;19.57;100.00
15272;BME280;7737;51.578;7.268;2023-07-29T06:05:29;100266.28;;;19.67;100.00
15272;BME280;7737;51.578;7.268;2023-07-29T06:07:56;100270.00;;;19.47;100.00
15272;BME280;7737;51.578;7.268;2023-07-29T06:10:22;100270.41;;;19.52;100.00
15272;BME280;7737;51.578;7.268;2023-07-29T06:12:49;100267.16;;;19.49;100.00
15272;BME280;7737;51.578;7.268;2023-07-29T06:15:17;100266.03;;;19.41;100.00
15272;BME280;7737;51.578;7.268;2023-07-29T06:17:47;100262.06;;;19.55;100.00
15272;BME280;7737;51.578;7.268;2023-07-29T06:20:13;100264.03;;;19.34;100.00
15272;BME280;7737;51.578;7.268;2023-07-29T06:22:41;100253.81;;;19.28;100.00
15272;BME280;7737;51.578;7.268;2023-07-29T06:25:08;100250.41;;;19.26;100.00
15272;BME280;7737;51.578;7.268;2023-07-29T06:27:34;100250.69;;;19.23;100.00
15272;BME280;7737;51.578;7.268;2023-07-29T06:30:01;100254.09;;;19.25;100.00
15272;BME280;7737;51.578;7.268;2023-07-29T06:32:29;100241.75;;;19.13;100.00
15272;BME280;7737;51.578;7.268;2023-07-29T06:34:56;100248.88;;;19.14;100.00
15272;BME280;7737;51.578;7.268;2023-07-29T06:37:22;100246.28;;;19.12;100.00
15272;BME280;7737;51.578;7.268;2023-07-29T06:39:49;100254.69;;;19.19;100.00
15272;BME280;7737;51.578;7.268;2023-07-29T06:42:15;100249.28;;;19.19;100.00
15272;BME280;7737;51.578;7.268;2023-07-29T06:44:42;100254.41;;;19.22;100.00
15272;BME280;7737;51.578;7.268;2023-07-29T06:47:11;100247.13;;;19.22;100.00
15272;BME280;7737;51.578;7.268;2023-07-29T06:49:39;100238.50;;;19.19;100.00
15272;BME280;7737;51.578;7.268;2023-07-29T06:52:05;100235.94;;;19.27;100.00
15272;BME280;7737;51.578;7.268;2023-07-29T06:54:32;100236.78;;;19.27;100.00
15272;BME280;7737;51.578;7.268;2023-07-29T06:56:58;100227.00;;;19.36;100.00
15272;BME280;7737;51.578;7.268;2023-07-29T06:59:25;100229.28;;;19.50;100.00
15272;BME280;7737;51.578;7.268;2023-07-29T07:01:52;100231.00;;;19.51;100.00
15272;BME280;7737;51.578;7.268;2023-07-29T07:04:18;100231.28;;;19.48;100.00
15272;BME280;7737;51.578;7.268;2023-07-29T07:06:47;100231.69;;;19.43;100.00
15272;BME280;7737;51.578;7.268;2023-07-29T07:09:13;100242.72;;;19.60;100.00
15272;BME280;7737;51.578;7.268;2023-07-29T07:11:40;100229.38;;;19.68;100.00
15272;BME280;7737;51.578;7.268;2023-07-29T07:14:06;100239.63;;;19.64;100.00
15272;BME280;7737;51.578;7.268;2023-07-29T07:16:33;100238.91;;;19.62;100.00
15272;BME280;7737;51.578;7.268;2023-07-29T07:19:01;100230.25;;;19.59;100.00
15272;BME280;7737;51.578;7.268;2023-07-29T07:21:28;100231.78;;;19.71;100.00
15272;BME280;7737;51.578;7.268;2023-07-29T07:23:56;100230.75;;;19.81;100.00
15272;BME280;7737;51.578;7.268;2023-07-29T07:26:23;100232.94;;;19.68;100.00
15272;BME280;7737;51.578;7.268;2023-07-29T07:28:49;100236.19;;;19.62;100.00
15272;BME280;7737;51.578;7.268;2023-07-29T07:31:16;100235.78;;;19.67;100.00
15272;BME280;7737;51.578;7.268;2023-07-29T07:33:43;100231.03;;;19.78;100.00
15272;BME280;7737;51.578;7.268;2023-07-29T07:36:09;100235.16;;;19.82;100.00
15272;BME280;7737;51.578;7.268;2023-07-29T07:38:36;100238.09;;;19.98;100.00
15272;BME280;7737;51.578;7.268;2023-07-29T07:41:04;100232.59;;;20.18;100.00
15272;BME280;7737;51.578;7.268;2023-07-29T07:43:30;100223.50;;;20.19;100.00
15272;BME280;7737;51.578;7.268;2023-07-29T07:45:58;100228.91;;;20.19;100.00
15272;BME280;7737;51.578;7.268;2023-07-29T07:48:25;100227.13;;;20.46;100.00
15272;BME280;7737;51.578;7.268;2023-07-29T07:50:51;100232.44;;;20.56;100.00
15272;BME280;7737;51.578;7.268;2023-07-29T07:53:18;100213.94;;;20.61;100.00
15272;BME280;7737;51.578;7.268;2023-07-29T07:55:45;100221.19;;;20.60;100.00
15272;BME280;7737;51.578;7.268;2023-07-29T07:58:13;100217.88;;;20.67;100.00
15272;BME280;7737;51.578;7.268;2023-07-29T08:00:39;100215.47;;;20.81;100.00
15272;BME280;7737;51.578;7.268;2023-07-29T08:03:06;100206.09;;;20.85;100.00
15272;BME280;7737;51.578;7.268;2023-07-29T08:05:33;100195.28;;;21.20;100.00
15272;BME280;7737;51.578;7.268;2023-07-29T08:07:59;100203.06;;;20.88;100.00
15272;BME280;7737;51.578;7.268;2023-07-29T08:10:26;100199.47;;;21.15;100.00
15272;BME280;7737;51.578;7.268;2023-07-29T08:12:52;100193.19;;;20.79;100.00
15272;BME280;7737;51.578;7.268;2023-07-29T08:15:20;100190.88;;;21.02;100.00
15272;BME280;7737;51.578;7.268;2023-07-29T08:17:47;100194.31;;;20.94;100.00
15272;BME280;7737;51.578;7.268;2023-07-29T08:20:13;100196.66;;;20.89;100.00
15272;BME280;7737;51.578;7.268;2023-07-29T08:22:40;100199.66;;;20.69;100.00
15272;BME280;7737;51.578;7.268;2023-07-29T08:25:07;100199.44;;;20.97;100.00
15272;BME280;7737;51.578;7.268;2023-07-29T08:27:34;100192.13;;;21.25;100.00
15272;BME280;7737;51.578;7.268;2023-07-29T08:30:01;100200.81;;;21.37;100.00
15272;BME280;7737;51.578;7.268;2023-07-29T08:32:29;100199.75;;;21.30;100.00
15272;BME280;7737;51.578;7.268;2023-07-29T08:34:55;100199.09;;;21.10;100.00
15272;BME280;7737;51.578;7.268;2023-07-29T08:37:22;100204.75;;;20.89;100.00
15272;BME280;7737;51.578;7.268;2023-07-29T08:39:49;100204.28;;;20.76;100.00
15272;BME280;7737;51.578;7.268;2023-07-29T08:47:26;100187.50;;;21.17;100.00
15272;BME280;7737;51.578;7.268;2023-07-29T08:49:55;100186.53;;;21.44;100.00
15272;BME280;7737;51.578;7.268;2023-07-29T08:52:22;100186.34;;;21.46;100.00
15272;BME280;7737;51.578;7.268;2023-07-29T08:54:49;100178.34;;;21.62;100.00
15272;BME280;7737;51.578;7.268;2023-07-29T08:57:18;100179.28;;;21.53;100.00
15272;BME280;7737;51.578;7.268;2023-07-29T08:59:45;100175.03;;;21.50;100.00
15272;BME280;7737;51.578;7.268;2023-07-29T09:02:12;100174.09;;;21.59;100.00
15272;BME280;7737;51.578;7.268;2023-07-29T09:04:38;100182.47;;;21.74;100.00
15272;BME280;7737;51.578;7.268;2023-07-29T09:07:07;100168.38;;;21.62;100.00
15272;BME280;7737;51.578;7.268;2023-07-29T09:09:34;100168.47;;;21.53;100.00
15272;BME280;7737;51.578;7.268;2023-07-29T09:12:00;100170.84;;;21.56;100.00
15272;BME280;7737;51.578;7.268;2023-07-29T09:14:28;100166.78;;;21.52;100.00
15272;BME280;7737;51.578;7.268;2023-07-29T09:16:54;100151.59;;;21.59;100.00
15272;BME280;7737;51.578;7.268;2023-07-29T09:19:25;100157.22;;;21.91;100.00
15272;BME280;7737;51.578;7.268;2023-07-29T09:21:51;100148.88;;;22.18;100.00
15272;BME280;7737;51.578;7.268;2023-07-29T09:24:20;100141.16;;;21.98;100.00
15272;BME280;7737;51.578;7.268;2023-07-29T09:26:51;100140.41;;;22.13;100.00
15272;BME280;7737;51.578;7.268;2023-07-29T09:29:22;100146.44;;;21.99;100.00
15272;BME280;7737;51.578;7.268;2023-07-29T09:31:49;100149.66;;;22.53;100.00
15272;BME280;7737;51.578;7.268;2023-07-29T09:34:16;100141.94;;;22.66;100.00
15272;BME280;7737;51.578;7.268;2023-07-29T09:36:43;100152.78;;;23.14;100.00
15272;BME280;7737;51.578;7.268;2023-07-29T09:39:11;100149.75;;;22.77;100.00
15272;BME280;7737;51.578;7.268;2023-07-29T09:41:39;100141.94;;;23.14;100.00
15272;BME280;7737;51.578;7.268;2023-07-29T09:44:06;100133.97;;;23.13;100.00
15272;BME280;7737;51.578;7.268;2023-07-29T09:46:34;100136.50;;;23.46;100.00
15272;BME280;7737;51.578;7.268;2023-07-29T09:49:02;100135.81;;;23.20;100.00
15272;BME280;7737;51.578;7.268;2023-07-29T09:51:28;100137.00;;;23.50;100.00
15272;BME280;7737;51.578;7.268;2023-07-29T09:53:55;100142.44;;;23.42;100.00
15272;BME280;7737;51.578;7.268;2023-07-29T09:56:25;100127.34;;;23.15;100.00
15272;BME280;7737;51.578;7.268;2023-07-29T09:58:55;100138.53;;;22.80;100.00
15272;BME280;7737;51.578;7.268;2023-07-29T10:01:22;100150.75;;;22.84;100.00
15272;BME280;7737;51.578;7.268;2023-07-29T10:03:49;100163.47;;;22.91;100.00
15272;BME280;7737;51.578;7.268;2023-07-29T10:06:17;100155.16;;;22.93;100.00
15272;BME280;7737;51.578;7.268;2023-07-29T10:08:43;100160.25;;;23.04;100.00
15272;BME280;7737;51.578;7.268;2023-07-29T10:11:11;100161.59;;;23.08;100.00
15272;BME280;7737;51.578;7.268;2023-07-29T10:13:38;100153.47;;;23.16;100.00
15272;BME280;7737;51.578;7.268;2023-07-29T10:16:06;100154.63;;;23.46;100.00
15272;BME280;7737;51.578;7.268;2023-07-29T10:18:33;100156.50;;;23.29;100.00
15272;BME280;7737;51.578;7.268;2023-07-29T10:21:01;100156.34;;;23.07;100.00
15272;BME280;7737;51.578;7.268;2023-07-29T10:23:38;100161.09;;;22.88;100.00
15272;BME280;7737;51.578;7.268;2023-07-29T10:26:10;100160.59;;;23.41;100.00
15272;BME280;7737;51.578;7.268;2023-07-29T10:28:40;100170.09;;;23.37;100.00
15272;BME280;7737;51.578;7.268;2023-07-29T10:31:08;100163.16;;;23.98;100.00
15272;BME280;7737;51.578;7.268;2023-07-29T10:33:34;100150.31;;;23.84;100.00
15272;BME280;7737;51.578;7.268;2023-07-29T10:36:02;100153.94;;;24.07;100.00
15272;BME280;7737;51.578;7.268;2023-07-29T10:38:29;100147.97;;;23.64;100.00
15272;BME280;7737;51.578;7.268;2023-07-29T10:40:56;100142.84;;;23.86;100.00
15272;BME280;7737;51.578;7.268;2023-07-29T10:43:26;100133.06;;;24.07;100.00
15272;BME280;7737;51.578;7.268;2023-07-29T10:45:55;100112.94;;;23.94;100.00
15272;BME280;7737;51.578;7.268;2023-07-29T10:48:43;100117.59;;;24.24;100.00
15272;BME280;7737;51.578;7.268;2023-07-29T10:51:23;100124.94;;;24.46;100.00
15272;BME280;7737;51.578;7.268;2023-07-29T10:53:52;100115.88;;;24.76;100.00
15272;BME280;7737;51.578;7.268;2023-07-29T10:56:26;100115.13;;;24.37;100.00
15272;BME280;7737;51.578;7.268;2023-07-29T10:58:55;100117.63;;;24.16;100.00
15272;BME280;7737;51.578;7.268;2023-07-29T11:01:27;100128.13;;;23.72;100.00
15272;BME280;7737;51.578;7.268;2023-07-29T11:04:26;100122.56;;;23.66;100.00
15272;BME280;7737;51.578;7.268;2023-07-29T11:07:22;100129.53;;;23.52;100.00
15272;BME280;7737;51.578;7.268;2023-07-29T11:09:53;100120.03;;;24.11;100.00
15272;BME280;7737;51.578;7.268;2023-07-29T11:12:37;100103.53;;;24.66;100.00
15272;BME280;7737;51.578;7.268;2023-07-29T11:15:22;100106.94;;;23.68;100.00
15272;BME280;7737;51.578;7.268;2023-07-29T11:17:50;100123.22;;;23.68;100.00
15272;BME280;7737;51.578;7.268;2023-07-29T11:20:19;100125.59;;;23.62;100.00
15272;BME280;7737;51.578;7.268;2023-07-29T11:22:47;100135.63;;;24.17;100.00
15272;BME280;7737;51.578;7.268;2023-07-29T11:25:15;100123.19;;;24.76;100.00
15272;BME280;7737;51.578;7.268;2023-07-29T11:27:42;100108.28;;;24.41;100.00
15272;BME280;7737;51.578;7.268;2023-07-29T11:30:10;100110.19;;;24.02;100.00
15272;BME280;7737;51.578;7.268;2023-07-29T11:32:38;100118.00;;;23.97;100.00
15272;BME280;7737;51.578;7.268;2023-07-29T11:35:06;100116.50;;;23.94;100.00
15272;BME280;7737;51.578;7.268;2023-07-29T11:37:35;100118.59;;;23.76;100.00
15272;BME280;7737;51.578;7.268;2023-07-29T11:40:02;100118.41;;;23.86;100.00
15272;BME280;7737;51.578;7.268;2023-07-29T11:42:31;100115.22;;;24.21;100.00
15272;BME280;7737;51.578;7.268;2023-07-29T11:44:58;100110.63;;;25.20;100.00
15272;BME280;7737;51.578;7.268;2023-07-29T11:47:25;100086.72;;;25.08;100.00
15272;BME280;7737;51.578;7.268;2023-07-29T11:49:52;100078.13;;;24.81;100.00
15272;BME280;7737;51.578;7.268;2023-07-29T11:52:19;100079.94;;;24.66;100.00
15272;BME280;7737;51.578;7.268;2023-07-29T11:54:48;100081.50;;;24.61;100.00
15272;BME280;7737;51.578;7.268;2023-07-29T11:57:15;100080.34;;;24.55;100.00
15272;BME280;7737;51.578;7.268;2023-07-29T11:59:42;100114.91;;;24.08;100.00
15272;BME280;7737;51.578;7.268;2023-07-29T12:02:12;100125.84;;;23.92;100.00
15272;BME280;7737;51.578;7.268;2023-07-29T12:04:39;100151.44;;;23.42;100.00
15272;BME280;7737;51.578;7.268;2023-07-29T12:07:07;100184.81;;;23.02;100.00
15272;BME280;7737;51.578;7.268;2023-07-29T12:09:34;100170.41;;;23.18;100.00
15272;BME280;7737;51.578;7.268;2023-07-29T12:12:03;100176.66;;;23.59;100.00
15272;BME280;7737;51.578;7.268;2023-07-29T12:14:30;100166.31;;;23.62;100.00
15272;BME280;7737;51.578;7.268;2023-07-29T12:17:00;100161.72;;;23.71;100.00
15272;BME280;7737;51.578;7.268;2023-07-29T12:19:31;100158.06;;;24.03;100.00
15272;BME280;7737;51.578;7.268;2023-07-29T12:21:59;100153.59;;;24.18;100.00
15272;BME280;7737;51.578;7.268;2023-07-29T12:24:25;100129.03;;;24.42;100.00
15272;BME280;7737;51.578;7.268;2023-07-29T12:26:52;100123.81;;;25.09;100.00
15272;BME280;7737;51.578;7.268;2023-07-29T12:29:20;100104.69;;;24.71;100.00
15272;BME280;7737;51.578;7.268;2023-07-29T12:31:47;100110.13;;;24.18;100.00
15272;BME280;7737;51.578;7.268;2023-07-29T12:34:17;100126.50;;;23.94;100.00
15272;BME280;7737;51.578;7.268;2023-07-29T12:36:46;100117.06;;;23.82;100.00
15272;BME280;7737;51.578;7.268;2023-07-29T12:39:17;100112.91;;;24.10;100.00
15272;BME280;7737;51.578;7.268;2023-07-29T12:41:44;100095.28;;;24.59;100.00
15272;BME280;7737;51.578;7.268;2023-07-29T12:44:11;100090.66;;;24.91;100.00
15272;BME280;7737;51.578;7.268;2023-07-29T12:46:39;100094.31;;;24.75;100.00
15272;BME280;7737;51.578;7.268;2023-07-29T12:49:05;100095.44;;;24.35;100.00
15272;BME280;7737;51.578;7.268;2023-07-29T12:51:32;100101.69;;;24.05;100.00
15272;BME280;7737;51.578;7.268;2023-07-29T12:53:59;100112.31;;;24.22;100.00
15272;BME280;7737;51.578;7.268;2023-07-29T12:56:26;100107.53;;;24.33;100.00
15272;BME280;7737;51.578;7.268;2023-07-29T12:58:53;100110.75;;;24.28;100.00